Zeybe — TCMG4 — position and weather

sailwx.info

Track history (hours):
 
Tides and Currents Weather Stations Pressure Air Temp Water Temp Dewpoint Dewpoint Depression Visibility Wind Speed Wind Dir Waves Ship Positions

Zeybe

Last reported at 2018-Jul-20 10:30 UTC. Time now 2018-Jul-20 10:45 UTC.
Position N 36°09' E 014°24'.

Length 70 m; draft 4.9 m.

Type: Cargo ship. MMSI: 271042650.

Date/timePositionNaut miles runAvg speedWind from/ knotsBaromVisibWave heightAir tempDewpointWater temp
2018-Jul-20 10:30N 36°09' E 014°24'4 7.7
2018-Jul-20 10:00N 36°10' E 014°29'4 7.6
2018-Jul-20 09:30N 36°10' E 014°34'4 7.5
2018-Jul-20 09:00N 36°11' E 014°38'4 7.4
2018-Jul-20 08:30N 36°11' E 014°43'4 7.2
2018-Jul-20 08:00N 36°11' E 014°48'4 7.2
2018-Jul-20 07:30N 36°11' E 014°52'3 7.0
2018-Jul-20 07:00N 36°11' E 014°56'3 6.9
2018-Jul-20 06:30N 36°12' E 015°01'3 6.6
2018-Jul-20 06:00N 36°12' E 015°05'3 6.5
2018-Jul-20 05:29N 36°12' E 015°09'7 6.8
2018-Jul-20 04:30N 36°13' E 015°17'4 6.9
2018-Jul-20 03:59N 36°13' E 015°21'  
2018-Jul-17 07:14N 36°59' E 023°39'2 7.6
2018-Jul-17 07:00N 37°00' E 023°40'4 7.7
2018-Jul-17 06:30N 37°03' E 023°43'4 8.0
2018-Jul-17 06:00N 37°07' E 023°45'7 7.9
2018-Jul-17 05:05N 37°13' E 023°50'1 7.9
2018-Jul-17 05:00N 37°14' E 023°51'4 7.9
2018-Jul-17 04:29N 37°17' E 023°53'4 7.6
2018-Jul-17 03:59N 37°20' E 023°56'4 7.6
2018-Jul-17 03:30N 37°23' E 023°59'8 7.8
2018-Jul-17 02:29N 37°30' E 024°04'4 7.7
2018-Jul-17 01:58N 37°33' E 024°06'3 7.5
2018-Jul-17 01:30N 37°36' E 024°08'155 7.5
2018-Jul-16 04:47N 39°50' E 025°49'  
Track history (hours):
 
Tides and Currents Weather Stations Pressure Air Temp Water Temp Dewpoint Dewpoint Depression Visibility Wind Speed Wind Dir Waves Ship Positions

Zeybe

Last reported at 2018-Jul-20 10:30 UTC. Time now 2018-Jul-20 10:45 UTC.
Position N 36°09' E 014°24'.

Length 70 m; draft 4.9 m.

Type: Cargo ship. MMSI: 271042650.

Date/timePositionNaut miles runAvg speedWind from/ knotsBaromVisibWave heightAir tempDewpointWater temp
2018-Jul-20 10:30N 36°09' E 014°24'4 7.7
2018-Jul-20 10:00N 36°10' E 014°29'4 7.6
2018-Jul-20 09:30N 36°10' E 014°34'4 7.5
2018-Jul-20 09:00N 36°11' E 014°38'4 7.4
2018-Jul-20 08:30N 36°11' E 014°43'4 7.2
2018-Jul-20 08:00N 36°11' E 014°48'4 7.2
2018-Jul-20 07:30N 36°11' E 014°52'3 7.0
2018-Jul-20 07:00N 36°11' E 014°56'3 6.9
2018-Jul-20 06:30N 36°12' E 015°01'3 6.6
2018-Jul-20 06:00N 36°12' E 015°05'3 6.5
2018-Jul-20 05:29N 36°12' E 015°09'7 6.8
2018-Jul-20 04:30N 36°13' E 015°17'4 6.9
2018-Jul-20 03:59N 36°13' E 015°21'  
2018-Jul-17 07:14N 36°59' E 023°39'2 7.6
2018-Jul-17 07:00N 37°00' E 023°40'4 7.7
2018-Jul-17 06:30N 37°03' E 023°43'4 8.0
2018-Jul-17 06:00N 37°07' E 023°45'7 7.9
2018-Jul-17 05:05N 37°13' E 023°50'1 7.9
2018-Jul-17 05:00N 37°14' E 023°51'4 7.9
2018-Jul-17 04:29N 37°17' E 023°53'4 7.6
2018-Jul-17 03:59N 37°20' E 023°56'4 7.6
2018-Jul-17 03:30N 37°23' E 023°59'8 7.8
2018-Jul-17 02:29N 37°30' E 024°04'4 7.7
2018-Jul-17 01:58N 37°33' E 024°06'3 7.5
2018-Jul-17 01:30N 37°36' E 024°08'155 7.5
2018-Jul-16 04:47N 39°50' E 025°49'  

Dump ship's entire track history